Airfield :
LOGIN :

Register | Disclaimer

   EN    FR    IT 

 










Legend :    VFR   Marginal VFR   IFR   Intensive IFR   Very Intensive IFR
Visi :
Ceiling :
>= 8 km
>= 3000ft
5 to 8 km
1000 to 3000 ft
1500m to 5 km
500 to 1000 ft
800 to 1500m
200 to 500 ft
< 800m
< 200 ft
Symbols :   Thunderstorms  Fog  Heavy snow  Heavy precipitations  Wind > 20 kt
SIGMETs :     Misc.  Thunderstorms  Icing  Turbulence  Mountain Waves  Volcanic Ashes






- Airport Elevation : 464 ft
- IATA code : EVX


LFOE - Evreux

CURRENT METAR :
  • 241100Z AUTO 06003KT 360V100 1300 1100 R22/1600U BR OVC002 M01/M01 Q1023 BECMG 6000 NSW OVC007

EXPIRED METARs :
  • 241030Z AUTO VRB02KT 0900 0650 R22/1300D FZFG VV/// M01/M01 Q1023 BECMG 6000 NSW OVC007
  • 241000Z AUTO 16003KT 130V190 0550 0450 R22/0650D FZFG VV/// M01/M01 Q1023 BECMG 6000 NSW OVC007
  • 240930Z AUTO 12004KT 080V160 0650 0500 R22/0650U FZFG VV/// M01/M01 Q1023 BECMG 6000 NSW OVC007
  • 240900Z AUTO 14003KT 100V180 0400 R22/0500N FZFG VV/// M01/M01 Q1023 NOSIG
  • 240830Z AUTO 12007KT 0700 0550 R22/0700N FZFG VV/// M01/M01 Q1023 TEMPO 0500 FZFG

TAF TAF LFOE
Valid from the 24 at 09:00 until the 25 at 09:00 UTC


240800Z 2409/2509 12005KT 1200 BR OVC002
TEMPO 2409/2411 0500 FZFG VV///
BECMG 2411/2414 6000 NSW OVC007
BECMG 2419/2421 2000 BR OVC003
BECMG 2423/2501 0200 FG VV///



MET'MAP, your aeronautical weather chart ! - Copyright ORBIFLY December 2007 - Disclaimer

ORBIFLY MET'MAP TEAM :

Programming & Development : Alexandra Zaïnal
Concept & original design : Baudouin d'Aumeries
Assistance for programming : Marc-Olivier Méhu
Technical & hardware support : Manuel Goepfert

Contact : metmap@orbifly.com




SOURCES & CREDITS :

   NOAA